KDLN/DLN METAR and TAF weather

Enter ICAO airport designator
Station Type Date Time Source
KDLN METAR 2020/09/27 03:53 UTC NOAA

KDLN 270353Z AUTO 31007KT 10SM CLR 06/M03 A3013 RMK AO2 SLP189 T00611033


Station Type Date Time Source
KDLN Decoded METAR 2020/09/27 03:53 UTC NOAA

DILLON AIRPORT, MT, United States (KDLN) 45-15N 112-33W 1591M
Sep 26, 2020 - 11:53 PM EDT / 2020.09.27 0353 UTC
Wind: from the NW (310 degrees) at 8 MPH (7 KT):0
Visibility: 10 mile(s):0
Sky conditions: clear
Temperature: 43.0 F (6.1 C)
Dew Point: 26.1 F (-3.3 C)
Relative Humidity: 50%
Pressure (altimeter): 30.13 in. Hg (1020 hPa)
ob: KDLN 270353Z AUTO 31007KT 10SM CLR 06/M03 A3013 RMK AO2 SLP189 T00611033
cycle: 4

Station Type Date Time Source
KDLN TAF UTC NOAA

Error!

Example: see airport list